Time;durP1;ratioP1;P1;durP2;ratioP2;P2;SDS_P1;SDS_P2;PMS_P1;PMS_P2;Temp;Humidity;BMP_temperature;BMP_pressure;BME280_temperature;BME280_humidity;BME280_pressure;Samples;Min_cycle;Max_cycle;Signal;HPM_P1;HPM_P2
2023/12/26 00:01:47;;;;;;;;;;;13.80;63.50;;;12.49;62.71;100003.84;12248891;19;19911;-85
2023/12/26 00:05:48;;;;;;;;;;;13.80;63.50;;;12.56;62.70;100023.41;12249576;19;19948;-85
2023/12/26 00:09:50;;;;;;;;;;;13.70;63.40;;;12.46;62.58;100001.47;12248985;19;19935;-86
2023/12/26 00:13:52;;;;;;;;;;;13.70;63.60;;;12.34;62.68;99983.09;12250127;19;20337;-86
2023/12/26 00:17:53;;;;;;;;;;;13.70;63.50;;;12.44;62.73;99995.50;12248619;19;20331;-86
2023/12/26 00:21:55;;;;;;;;;;;13.70;63.60;;;12.55;62.80;100006.00;12246970;19;19919;-86
2023/12/26 00:25:58;;;;;;;;;;;13.70;63.60;;;12.45;62.75;99982.31;12248839;19;19914;-85
2023/12/26 00:30:00;;;;;;;;;;;13.70;63.60;;;12.49;62.85;99980.28;12247490;19;19903;-86
2023/12/26 00:34:01;;;;;;;;;;;13.70;63.70;;;12.56;62.79;99982.31;12248117;19;19931;-86
2023/12/26 00:38:04;;;;;;;;;;;13.70;63.70;;;12.48;62.74;99960.28;12247894;19;19919;-86
2023/12/26 00:42:05;;;;;;;;;;;13.70;63.70;;;12.46;62.75;99951.72;12247067;19;20256;-86
2023/12/26 00:46:07;;;;;;;;;;;13.70;63.80;;;12.52;62.85;99952.06;12249476;19;20007;-85
2023/12/26 00:50:11;;;;;;;;;;;13.70;63.80;;;12.54;62.86;99941.47;12248516;19;19993;-86
2023/12/26 00:54:13;;;;;;;;;;;13.70;63.80;;;12.49;62.87;99938.38;12250565;19;19921;-85
2023/12/26 00:58:15;;;;;;;;;;;13.70;63.90;;;12.43;62.76;99933.63;12247056;19;19918;-85
2023/12/26 01:02:20;;;;;;;;;;;13.70;63.80;;;12.51;62.86;99942.56;12246406;19;19915;-85
2023/12/26 01:06:22;;;;;;;;;;;13.70;63.90;;;12.46;62.87;99928.13;12247600;19;20433;-85
2023/12/26 01:10:23;;;;;;;;;;;13.70;63.90;;;12.56;62.81;99939.59;12246462;19;19950;-86
2023/12/26 01:14:25;;;;;;;;;;;13.70;64.20;;;12.54;62.89;99926.59;12248073;19;19919;-85
2023/12/26 01:18:27;;;;;;;;;;;13.70;64.10;;;12.55;62.91;99935.28;12243962;19;20291;-85
2023/12/26 01:22:28;;;;;;;;;;;13.70;64.10;;;12.52;62.84;99911.94;12248177;19;19915;-85
2023/12/26 01:26:30;;;;;;;;;;;13.70;64.10;;;12.36;62.87;99880.88;12247287;19;19921;-85
2023/12/26 01:30:33;;;;;;;;;;;13.70;64.10;;;12.48;62.91;99900.06;12246709;19;19907;-86
2023/12/26 01:34:34;;;;;;;;;;;13.70;64.30;;;12.51;62.94;99891.97;12246368;19;19951;-86
2023/12/26 01:38:36;;;;;;;;;;;13.70;64.40;;;12.58;62.80;99901.84;12241771;19;19930;-86
2023/12/26 01:42:40;;;;;;;;;;;13.70;64.40;;;12.58;62.87;99885.28;12244186;19;19918;-86
2023/12/26 01:46:42;;;;;;;;;;;13.70;64.40;;;12.56;62.91;99867.09;12246772;19;19915;-86
2023/12/26 01:50:43;;;;;;;;;;;13.80;64.40;;;12.60;63.00;99865.06;12241736;19;19911;-86
2023/12/26 01:54:46;;;;;;;;;;;13.80;64.40;;;12.58;62.83;99846.84;12244629;19;19947;-86
2023/12/26 01:58:49;;;;;;;;;;;13.80;64.40;;;12.50;63.02;99809.97;12242411;19;19923;-85
2023/12/26 02:02:54;;;;;;;;;;;13.80;64.40;;;12.69;62.89;99832.06;12243575;19;19960;-85
2023/12/26 02:06:57;;;;;;;;;;;13.90;64.60;;;12.72;62.96;99824.81;12244318;19;19918;-86
2023/12/26 02:10:58;;;;;;;;;;;13.80;64.40;;;12.70;62.92;99810.16;12242257;19;19928;-86
2023/12/26 02:15:10;;;;;;;;;;;13.90;64.50;;;12.62;62.87;99795.06;12242513;19;19915;-85
2023/12/26 02:19:11;;;;;;;;;;;13.90;64.40;;;12.66;62.91;99787.78;12235651;19;19923;-85
2023/12/26 02:23:13;;;;;;;;;;;13.90;64.50;;;12.72;62.83;99797.75;12243665;19;19918;-86
2023/12/26 02:27:18;;;;;;;;;;;13.90;64.70;;;12.67;63.09;99779.81;12243051;19;19934;-86
2023/12/26 02:31:21;;;;;;;;;;;13.90;64.50;;;12.66;63.05;99775.50;12240850;19;19911;-86
2023/12/26 02:35:23;;;;;;;;;;;13.90;64.60;;;12.49;63.08;99739.34;12243403;19;20322;-86
2023/12/26 02:39:26;;;;;;;;;;;13.90;64.70;;;12.43;63.12;99739.84;12242947;19;19911;-86
2023/12/26 02:43:28;;;;;;;;;;;13.90;64.60;;;12.60;63.05;99752.44;12242736;19;19923;-86
2023/12/26 02:47:30;;;;;;;;;;;13.90;64.70;;;12.75;63.03;99777.41;12246261;19;19911;-86
2023/12/26 02:51:32;;;;;;;;;;;13.90;64.70;;;12.77;62.96;99772.91;12253791;19;20349;-86
2023/12/26 02:55:33;;;;;;;;;;;13.90;64.60;;;12.74;63.03;99759.19;12255155;19;19918;-86
2023/12/26 02:59:35;;;;;;;;;;;13.90;64.70;;;12.77;63.14;99754.56;12254230;19;19978;-86
2023/12/26 03:03:36;;;;;;;;;;;14.00;64.80;;;12.68;63.00;99739.56;12254659;19;19922;-86
2023/12/26 03:07:38;;;;;;;;;;;13.90;64.80;;;12.76;63.01;99745.00;12256475;19;19919;-86
2023/12/26 03:11:40;;;;;;;;;;;14.00;64.90;;;12.63;63.02;99710.28;12251602;19;19926;-85
2023/12/26 03:15:42;;;;;;;;;;;14.00;65.00;;;12.59;63.01;99707.09;12251639;19;19919;-86
2023/12/26 03:19:45;;;;;;;;;;;14.00;64.70;;;12.77;63.04;99740.59;12251099;19;19923;-86
2023/12/26 03:23:47;;;;;;;;;;;14.00;64.90;;;12.79;62.97;99741.31;12252507;19;19922;-86
2023/12/26 03:27:49;;;;;;;;;;;14.00;64.90;;;12.82;63.15;99756.78;12251573;19;19919;-86
2023/12/26 03:31:51;;;;;;;;;;;14.00;64.80;;;12.52;62.96;99698.03;12247827;19;20338;-85
2023/12/26 03:35:53;;;;;;;;;;;14.00;64.80;;;12.71;63.04;99736.69;12251572;19;19918;-86
2023/12/26 03:39:54;;;;;;;;;;;14.00;64.70;;;12.75;63.15;99726.81;12251089;19;19975;-86
2023/12/26 03:43:56;;;;;;;;;;;13.90;64.80;;;12.81;63.07;99742.03;12251037;19;19940;-86
2023/12/26 03:47:57;;;;;;;;;;;14.00;64.80;;;12.65;63.00;99710.16;12251541;19;19911;-86
2023/12/26 03:51:59;;;;;;;;;;;14.00;64.70;;;12.78;63.20;99735.25;12247397;19;19903;-86
2023/12/26 03:56:00;;;;;;;;;;;14.00;65.00;;;12.76;63.11;99723.22;12250772;19;19915;-86
2023/12/26 04:00:04;;;;;;;;;;;14.00;64.90;;;12.82;63.21;99736.66;12247586;19;19997;-86
2023/12/26 04:04:15;;;;;;;;;;;14.00;64.90;;;12.80;63.03;99754.31;12252857;19;20322;-86
2023/12/26 04:08:17;;;;;;;;;;;14.00;65.20;;;12.82;63.05;99756.78;12251485;19;19915;-86
2023/12/26 04:12:19;;;;;;;;;;;14.00;65.10;;;12.80;63.16;99763.97;12246937;19;19919;-86
2023/12/26 04:16:21;;;;;;;;;;;13.90;64.90;;;12.74;63.08;99748.72;12249900;19;19930;-85
2023/12/26 04:20:23;;;;;;;;;;;13.90;65.10;;;12.72;63.14;99745.38;12248819;19;19922;-86
2023/12/26 04:24:25;;;;;;;;;;;13.90;65.20;;;12.59;63.29;99716.72;12251102;19;19913;-86
2023/12/26 04:28:26;;;;;;;;;;;13.90;65.30;;;12.71;63.32;99743.72;12248442;19;19919;-85
2023/12/26 04:32:28;;;;;;;;;;;13.90;65.40;;;12.67;63.13;99742.31;12250461;19;19915;-85
2023/12/26 04:36:37;;;;;;;;;;;13.90;65.30;;;12.73;63.24;99757.53;12248673;19;20279;-86
2023/12/26 04:40:39;;;;;;;;;;;13.90;65.20;;;12.69;63.40;99750.88;12249358;19;20359;-85
2023/12/26 04:44:40;;;;;;;;;;;13.90;65.30;;;12.76;63.27;99759.91;12248883;19;19938;-85
2023/12/26 04:48:42;;;;;;;;;;;13.90;65.60;;;12.67;63.32;99751.00;12249108;19;19925;-85
2023/12/26 04:52:45;;;;;;;;;;;13.90;65.50;;;12.68;63.37;99751.81;12249276;19;20354;-85
2023/12/26 04:56:48;;;;;;;;;;;13.90;65.30;;;12.66;63.33;99756.34;12247710;19;19922;-85
2023/12/26 05:00:50;;;;;;;;;;;13.90;65.40;;;12.73;63.30;99766.22;12246521;19;19919;-85
2023/12/26 05:04:52;;;;;;;;;;;13.90;65.30;;;12.73;63.40;99773.25;12247210;19;19923;-85
2023/12/26 05:08:54;;;;;;;;;;;13.90;65.40;;;12.68;63.41;99771.00;12245929;19;19930;-85
2023/12/26 05:12:56;;;;;;;;;;;13.90;65.40;;;12.71;63.30;99775.97;12245824;19;19911;-85
2023/12/26 05:16:58;;;;;;;;;;;14.00;65.50;;;12.73;63.27;99788.97;12245645;19;19926;-85
2023/12/26 05:21:00;;;;;;;;;;;13.90;65.40;;;12.76;63.26;99789.56;12245991;19;19915;-86
2023/12/26 05:25:03;;;;;;;;;;;13.90;65.30;;;12.53;63.28;99751.25;12246228;19;19919;-85
2023/12/26 05:29:05;;;;;;;;;;;13.90;65.40;;;12.71;63.39;99783.84;12245444;19;19911;-85
2023/12/26 05:33:07;;;;;;;;;;;13.90;65.40;;;12.68;63.40;99784.09;12241436;19;19923;-85
2023/12/26 05:37:09;;;;;;;;;;;13.90;65.40;;;12.66;63.40;99793.03;12245886;19;20365;-86
2023/12/26 05:41:11;;;;;;;;;;;13.90;66.00;;;12.73;63.41;99810.75;12241315;19;19923;-85
2023/12/26 05:45:13;;;;;;;;;;;13.90;65.30;;;12.74;63.46;99817.66;12247029;19;19983;-85
2023/12/26 05:49:15;;;;;;;;;;;13.90;65.30;;;12.73;63.45;99818.63;12244647;19;20346;-85
2023/12/26 05:53:17;;;;;;;;;;;13.90;65.30;;;12.76;63.37;99831.47;12243264;19;20269;-85
2023/12/26 05:57:19;;;;;;;;;;;13.90;65.30;;;12.71;63.26;99831.00;12245113;19;20326;-85
2023/12/26 06:01:20;;;;;;;;;;;13.90;65.20;;;12.74;63.27;99814.19;12243362;19;19922;-86
2023/12/26 06:05:22;;;;;;;;;;;13.90;65.20;;;12.60;63.40;99805.63;12247064;19;19911;-85
2023/12/26 06:09:26;;;;;;;;;;;13.90;65.20;;;12.79;63.25;99831.22;12244649;19;19914;-85
2023/12/26 06:13:28;;;;;;;;;;;13.90;65.20;;;12.79;63.35;99835.63;12245328;19;19911;-85
2023/12/26 06:17:29;;;;;;;;;;;13.90;65.20;;;12.75;63.39;99834.22;12241237;19;19944;-85
2023/12/26 06:21:32;;;;;;;;;;;13.90;65.30;;;12.78;63.45;99850.53;12240415;19;19974;-85
2023/12/26 06:25:34;;;;;;;;;;;13.90;65.20;;;12.75;63.59;99839.47;12257010;19;19923;-85
2023/12/26 06:29:36;;;;;;;;;;;13.90;65.20;;;12.78;63.36;99862.78;12254702;19;19926;-85
2023/12/26 06:33:38;;;;;;;;;;;13.90;65.10;;;12.67;63.37;99847.91;12254777;19;19922;-86
2023/12/26 06:37:40;;;;;;;;;;;13.90;65.30;;;12.69;63.46;99860.88;12253447;19;19915;-85
2023/12/26 06:41:43;;;;;;;;;;;13.90;65.20;;;12.69;63.48;99877.47;12241940;19;19927;-85
2023/12/26 06:45:44;;;;;;;;;;;13.90;65.30;;;12.61;63.46;99874.59;12255467;19;20337;-85
2023/12/26 06:49:46;;;;;;;;;;;13.90;65.60;;;12.60;63.49;99913.03;12254596;19;19911;-86
2023/12/26 06:53:48;;;;;;;;;;;13.90;65.80;;;12.60;63.51;99910.41;12253671;19;19915;-86
2023/12/26 06:57:50;;;;;;;;;;;13.80;65.60;;;12.56;63.55;99910.78;12253977;19;19925;-86
2023/12/26 07:01:52;;;;;;;;;;;13.80;65.50;;;12.62;63.54;99924.22;12248825;19;20576;-85
2023/12/26 07:05:54;;;;;;;;;;;13.80;65.50;;;12.52;63.42;99893.63;12253914;19;19947;-86
2023/12/26 07:09:55;;;;;;;;;;;13.80;65.80;;;12.62;63.47;99915.53;12252187;19;19923;-86
2023/12/26 07:13:57;;;;;;;;;;;13.80;66.30;;;12.55;63.47;99901.25;12254281;19;19919;-85
2023/12/26 07:17:59;;;;;;;;;;;13.80;66.60;;;12.57;63.40;99928.97;12252569;19;20353;-85
2023/12/26 07:22:01;;;;;;;;;;;13.80;65.60;;;12.42;63.55;99909.19;12252741;19;19919;-85
2023/12/26 07:26:03;;;;;;;;;;;13.80;65.50;;;12.55;63.63;99954.44;12255103;19;19930;-84
2023/12/26 07:30:06;;;;;;;;;;;13.80;65.40;;;12.54;63.66;99963.25;12253434;19;19958;-85
2023/12/26 07:34:11;;;;;;;;;;;13.70;65.20;;;12.50;63.58;99976.69;12251758;19;19915;-84
2023/12/26 07:38:12;;;;;;;;;;;13.70;65.20;;;12.49;63.66;99988.97;12251619;19;19922;-85
2023/12/26 07:42:14;;;;;;;;;;;13.70;65.10;;;12.48;63.49;99989.09;12250733;19;20265;-86
2023/12/26 07:46:16;;;;;;;;;;;13.70;65.00;;;12.44;63.60;99992.88;12251185;19;19921;-85
2023/12/26 07:50:18;;;;;;;;;;;13.70;65.00;;;12.49;63.59;100009.91;12250207;19;19928;-85
2023/12/26 07:54:20;;;;;;;;;;;13.70;64.90;;;12.50;63.49;100000.25;12254871;19;19935;-86
2023/12/26 07:58:21;;;;;;;;;;;13.70;64.90;;;12.48;63.52;100021.34;12251243;19;20334;-87
2023/12/26 08:02:23;;;;;;;;;;;13.70;64.80;;;12.49;63.43;100038.72;12251822;19;19919;-86
2023/12/26 08:06:25;;;;;;;;;;;13.70;64.80;;;12.39;63.52;100033.34;12252159;19;19914;-86
2023/12/26 08:10:27;;;;;;;;;;;13.70;64.80;;;12.27;63.56;100034.22;12249972;19;19929;-85
2023/12/26 08:14:29;;;;;;;;;;;13.60;64.70;;;12.42;63.57;100066.28;12252141;19;19918;-86
2023/12/26 08:18:30;;;;;;;;;;;13.60;64.70;;;12.31;63.50;100050.53;12247810;19;19982;-85
2023/12/26 08:22:32;;;;;;;;;;;13.60;65.00;;;12.37;63.50;100071.06;12252145;19;20274;-86
2023/12/26 08:26:34;;;;;;;;;;;13.60;65.20;;;12.17;63.57;100059.41;12250416;19;19986;-85
2023/12/26 08:30:36;;;;;;;;;;;13.60;64.80;;;12.13;63.63;100048.34;12236748;19;19923;-85
2023/12/26 08:34:38;;;;;;;;;;;13.50;64.70;;;12.26;63.63;100082.31;12250307;19;19937;-86
2023/12/26 08:38:41;;;;;;;;;;;13.50;64.90;;;12.32;63.66;100096.75;12237575;19;19914;-86
2023/12/26 08:42:42;;;;;;;;;;;13.50;64.90;;;12.23;63.61;100090.38;12249706;19;19938;-85
2023/12/26 08:46:43;;;;;;;;;;;13.50;64.80;;;12.21;63.58;100081.81;12249396;19;19915;-87
2023/12/26 08:50:45;;;;;;;;;;;13.50;64.70;;;12.10;63.63;100081.75;12247786;19;20279;-89
2023/12/26 08:54:47;;;;;;;;;;;13.50;64.80;;;12.30;63.57;100123.03;12242520;19;20342;-88
2023/12/26 08:58:48;;;;;;;;;;;13.50;64.80;;;12.30;63.72;100127.44;12244644;19;19922;-88
2023/12/26 09:02:50;;;;;;;;;;;13.50;64.80;;;12.30;63.63;100137.91;12246466;19;20386;-88
2023/12/26 09:06:52;;;;;;;;;;;13.50;64.80;;;12.25;63.72;100145.25;12246239;19;19918;-87
2023/12/26 09:10:53;;;;;;;;;;;13.50;64.60;;;12.23;63.69;100157.59;12245843;19;19942;-86
2023/12/26 09:14:55;;;;;;;;;;;13.50;64.70;;;12.27;63.76;100161.69;12248162;19;19926;-85
2023/12/26 09:18:56;;;;;;;;;;;13.50;64.70;;;12.08;63.78;100135.97;12244787;19;19915;-87
2023/12/26 09:22:57;;;;;;;;;;;13.50;64.50;;;12.23;63.69;100173.31;12247464;19;20328;-86
2023/12/26 09:26:59;;;;;;;;;;;13.50;64.50;;;12.25;63.84;100182.72;12245951;19;19990;-87
2023/12/26 09:31:00;;;;;;;;;;;13.50;64.40;;;12.29;63.66;100209.53;12244740;19;19914;-86
2023/12/26 09:35:02;;;;;;;;;;;13.50;64.30;;;12.27;63.69;100208.81;12247295;19;20237;-85
2023/12/26 09:39:04;;;;;;;;;;;13.50;64.10;;;12.14;63.69;100196.56;12244294;19;19944;-85
2023/12/26 09:43:07;;;;;;;;;;;13.50;64.00;;;12.10;63.72;100196.91;12244735;19;20231;-85
2023/12/26 09:47:09;;;;;;;;;;;13.50;63.90;;;12.15;63.65;100210.50;12246330;19;19971;-85
2023/12/26 09:51:18;;;;;;;;;;;13.50;63.80;;;11.94;63.76;100190.13;12243365;19;19982;-85
2023/12/26 09:55:20;;;;;;;;;;;13.50;63.60;;;12.01;63.69;100189.69;12246144;19;19922;-85
2023/12/26 09:59:24;;;;;;;;;;;13.50;63.70;;;12.17;63.73;100219.91;12250125;19;19957;-86
2023/12/26 10:03:25;;;;;;;;;;;13.50;63.50;;;12.10;63.60;100220.47;12256627;19;19946;-85
2023/12/26 10:07:27;;;;;;;;;;;13.50;62.80;;;12.12;63.89;100219.41;12256114;19;19923;-86
2023/12/26 10:11:31;;;;;;;;;;;13.40;63.10;;;12.20;63.76;100242.41;12252275;19;19923;-85
2023/12/26 10:15:33;;;;;;;;;;;13.50;63.10;;;12.21;63.90;100249.34;12255565;19;20490;-86
2023/12/26 10:19:34;;;;;;;;;;;13.50;63.10;;;12.15;63.75;100227.06;12256049;19;20165;-85
2023/12/26 10:23:36;;;;;;;;;;;13.50;62.80;;;12.08;63.71;100238.06;12253117;19;19940;-85
2023/12/26 10:27:38;;;;;;;;;;;13.50;62.30;;;12.26;63.77;100267.31;12257660;19;19911;-85
2023/12/26 10:31:41;;;;;;;;;;;13.50;62.70;;;12.30;63.74;100287.97;12253383;19;19921;-86
2023/12/26 10:35:42;;;;;;;;;;;13.50;62.60;;;12.29;63.73;100288.91;12256602;19;19923;-85
2023/12/26 10:39:44;;;;;;;;;;;13.60;62.00;;;12.05;63.63;100256.59;12255686;19;19911;-85
2023/12/26 10:43:48;;;;;;;;;;;13.60;61.80;;;12.13;63.79;100277.84;12254133;19;19926;-85
2023/12/26 10:47:54;;;;;;;;;;;13.60;61.80;;;12.18;63.76;100289.66;12255320;19;19923;-85
2023/12/26 10:51:59;;;;;;;;;;;13.60;61.50;;;12.21;63.64;100306.94;12248788;19;19923;-85
2023/12/26 10:56:03;;;;;;;;;;;13.50;60.40;;;12.27;63.62;100316.97;12250958;19;19919;-87
2023/12/26 11:00:48;;;;;;;;;;;13.60;59.70;;;12.24;63.63;100334.69;12254148;19;20364;-85
2023/12/26 13:54:23;;;;;;;;;;;13.40;57.80;;;12.11;62.99;100512.66;12245473;19;19915;-84
2023/12/26 13:59:03;;;;;;;;;;;13.40;57.60;;;12.13;63.01;100518.66;12245290;19;19933;-84
2023/12/26 14:03:49;;;;;;;;;;;13.40;57.90;;;12.13;62.90;100531.72;12245317;19;19975;-83
2023/12/26 14:08:28;;;;;;;;;;;13.40;58.20;;;12.15;62.91;100529.81;12247020;19;19939;-84
2023/12/26 14:13:06;;;;;;;;;;;13.40;58.10;;;12.15;62.79;100532.44;12248872;19;19914;-84
2023/12/26 14:17:45;;;;;;;;;;;13.40;58.40;;;12.16;62.72;100537.59;12245815;19;19915;-84
2023/12/26 14:22:24;;;;;;;;;;;13.40;58.40;;;12.16;62.73;100537.59;12241291;19;19925;-84
2023/12/26 14:27:05;;;;;;;;;;;13.50;58.10;;;12.14;62.69;100544.69;12249597;19;19915;-84
2023/12/26 14:31:44;;;;;;;;;;;13.40;58.40;;;12.14;62.84;100541.25;12244060;19;20253;-84
2023/12/26 14:36:23;;;;;;;;;;;13.50;58.40;;;12.14;62.73;100547.31;12246878;19;20622;-84
2023/12/26 14:41:01;;;;;;;;;;;13.40;58.20;;;12.12;62.71;100549.22;12243487;19;19929;-84
2023/12/26 14:45:40;;;;;;;;;;;13.40;58.40;;;12.09;62.53;100567.72;12252125;19;19926;-85
2023/12/26 14:50:19;;;;;;;;;;;13.40;57.50;;;12.07;62.62;100571.38;12249961;19;19918;-84
2023/12/26 14:54:58;;;;;;;;;;;13.40;57.50;;;12.05;62.73;100565.41;12255749;19;20310;-84
2023/12/26 14:59:37;;;;;;;;;;;13.30;57.90;;;12.04;62.57;100577.63;12249443;19;19910;-84
2023/12/26 15:03:38;;;;;;;;;;;13.30;57.90;;;11.76;62.64;100546.28;12256267;19;19925;-83
2023/12/26 15:07:39;;;;;;;;;;;13.30;57.70;;;12.05;62.64;100581.13;12257593;19;19934;-83
2023/12/26 15:11:41;;;;;;;;;;;13.30;57.90;;;12.04;62.62;100585.47;12254961;19;19914;-83
2023/12/26 15:15:42;;;;;;;;;;;13.30;57.90;;;12.04;62.41;100589.88;12256767;19;19925;-83
2023/12/26 15:19:44;;;;;;;;;;;13.30;57.50;;;12.01;62.50;100600.56;12250252;19;20341;-83
2023/12/26 15:23:49;;;;;;;;;;;13.30;57.70;;;12.04;62.51;100618.69;12256443;19;19922;-83
2023/12/26 15:27:50;;;;;;;;;;;13.30;57.80;;;11.98;62.43;100593.72;12255504;19;19957;-83
2023/12/26 15:31:52;;;;;;;;;;;13.30;57.20;;;11.95;62.44;100605.22;12247213;19;19918;-83
2023/12/26 15:35:53;;;;;;;;;;;13.30;57.50;;;11.93;62.32;100617.56;12247493;19;20348;-83
2023/12/26 15:39:55;;;;;;;;;;;13.20;57.70;;;11.95;62.31;100614.88;12250180;19;19923;-83
2023/12/26 15:43:57;;;;;;;;;;;13.30;58.00;;;11.93;62.26;100627.19;12255290;19;19917;-82
2023/12/26 15:48:00;;;;;;;;;;;13.20;58.00;;;11.80;62.28;100611.41;12253499;19;20359;-83
2023/12/26 15:52:03;;;;;;;;;;;13.20;57.20;;;11.60;62.35;100576.00;12249057;19;19930;-84
2023/12/26 15:56:05;;;;;;;;;;;13.20;57.90;;;11.77;62.36;100619.44;12249759;19;19919;-84
2023/12/26 16:00:07;;;;;;;;;;;13.20;57.70;;;11.68;62.18;100610.38;12252204;19;20338;-83
2023/12/26 16:04:14;;;;;;;;;;;13.10;57.50;;;11.61;62.15;100611.72;12254539;19;20235;-83
2023/12/26 16:08:17;;;;;;;;;;;13.10;57.30;;;11.74;62.28;100644.00;12253606;19;19915;-83
2023/12/26 16:12:19;;;;;;;;;;;13.00;57.60;;;11.62;62.07;100630.84;12251069;19;19979;-83
2023/12/26 16:16:20;;;;;;;;;;;13.00;57.80;;;11.71;62.27;100652.03;12252955;19;19933;-83
2023/12/26 16:20:33;;;;;;;;;;;13.00;57.70;;;11.61;62.14;100652.69;12251091;19;20314;-84
2023/12/26 16:24:39;;;;;;;;;;;13.00;57.60;;;11.52;62.08;100654.09;12245182;19;20002;-85
2023/12/26 16:28:49;;;;;;;;;;;12.90;57.80;;;11.03;62.15;100594.28;12246796;19;22041;-83
2023/12/26 16:32:50;;;;;;;;;;;13.00;57.90;;;11.61;62.06;100690.19;12242723;19;19934;-84
2023/12/26 16:36:52;;;;;;;;;;;12.90;57.60;;;11.56;62.13;100692.22;12243403;19;20567;-83
2023/12/26 16:40:55;;;;;;;;;;;12.90;57.50;;;11.54;62.00;100688.84;12243224;19;20355;-83
2023/12/26 16:44:56;;;;;;;;;;;12.90;57.70;;;11.51;62.17;100694.25;12243932;19;19942;-83
2023/12/26 16:48:58;;;;;;;;;;;12.90;58.00;;;11.58;61.92;100713.03;12250327;19;19917;-83
2023/12/26 16:53:00;;;;;;;;;;;12.90;57.90;;;11.60;62.00;100719.84;12246399;19;19953;-84
2023/12/26 16:57:02;;;;;;;;;;;12.90;58.00;;;11.56;61.95;100714.91;12246662;19;19935;-83
2023/12/26 17:01:04;;;;;;;;;;;12.90;56.90;;;11.40;61.95;100681.84;12244310;19;20270;-83
2023/12/26 17:05:06;;;;;;;;;;;12.90;57.60;;;11.63;62.14;100718.84;12246483;19;19926;-84
2023/12/26 17:09:09;;;;;;;;;;;12.90;57.80;;;11.63;62.07;100730.13;12245405;19;19922;-84
2023/12/26 17:13:10;;;;;;;;;;;12.90;58.00;;;11.62;62.02;100725.84;12241239;19;19923;-84
2023/12/26 17:17:12;;;;;;;;;;;12.90;57.70;;;11.60;62.01;100724.25;12246248;19;20277;-83
2023/12/26 17:21:14;;;;;;;;;;;12.90;57.70;;;11.53;62.09;100713.34;12240812;19;19919;-83
2023/12/26 17:25:44;;;;;;;;;;;12.90;57.60;;;11.60;61.91;100732.09;12245173;19;19914;-83
2023/12/26 17:29:46;;;;;;;;;;;12.90;57.50;;;11.54;62.09;100743.78;12243852;19;19946;-84
2023/12/26 17:33:48;;;;;;;;;;;12.90;57.70;;;11.59;62.02;100751.34;12242377;19;19930;-83
2023/12/26 17:37:50;;;;;;;;;;;12.90;57.90;;;11.58;61.89;100760.13;12239544;19;19978;-83
2023/12/26 17:41:52;;;;;;;;;;;12.90;58.10;;;11.43;61.88;100733.94;12242945;19;19970;-83
2023/12/26 17:45:54;;;;;;;;;;;12.90;57.70;;;11.52;61.90;100754.31;12246037;19;19918;-84
2023/12/26 17:49:55;;;;;;;;;;;12.90;57.70;;;11.59;61.89;100767.88;12244847;19;20234;-84
2023/12/26 17:53:57;;;;;;;;;;;12.80;57.50;;;11.48;61.92;100758.06;12245414;19;19918;-83
2023/12/26 17:57:59;;;;;;;;;;;12.80;57.20;;;11.45;61.86;100755.63;12243580;19;19975;-83
2023/12/26 18:02:00;;;;;;;;;;;12.90;56.70;;;11.59;61.81;100775.72;12241946;19;20338;-83
2023/12/26 18:06:02;;;;;;;;;;;12.90;57.70;;;11.49;61.92;100772.78;12244877;19;20372;-84
2023/12/26 18:10:03;;;;;;;;;;;12.90;57.40;;;11.48;61.90;100768.50;12242765;19;19926;-83
2023/12/26 18:14:09;;;;;;;;;;;12.90;57.40;;;11.30;61.74;100744.25;12242754;19;19918;-84
2023/12/26 18:18:11;;;;;;;;;;;12.90;57.40;;;11.59;61.86;100788.81;12242964;19;19918;-83
2023/12/26 18:22:14;;;;;;;;;;;12.90;57.30;;;11.43;61.74;100770.53;12252059;19;20015;-84
2023/12/26 18:26:17;;;;;;;;;;;12.90;57.40;;;11.54;61.78;100782.16;12255220;19;20263;-84
2023/12/26 18:30:18;;;;;;;;;;;12.90;57.70;;;11.47;61.80;100787.72;12255237;19;19921;-83
2023/12/26 18:34:20;;;;;;;;;;;12.90;57.40;;;11.58;61.69;100788.88;12255572;19;19940;-83
2023/12/26 18:38:22;;;;;;;;;;;12.90;57.50;;;11.41;61.70;100777.63;12252414;19;19911;-83
2023/12/26 18:42:23;;;;;;;;;;;12.90;57.50;;;11.54;61.78;100817.00;12256918;19;19923;-83
2023/12/26 18:46:25;;;;;;;;;;;12.90;57.80;;;11.60;61.73;100841.94;12255387;19;19958;-83
2023/12/26 18:50:27;;;;;;;;;;;12.90;57.50;;;11.55;61.70;100855.28;12253375;19;19994;-84
2023/12/26 18:54:30;;;;;;;;;;;12.90;57.20;;;11.53;61.66;100878.09;12253948;19;20242;-83
2023/12/26 18:58:32;;;;;;;;;;;12.90;57.50;;;11.45;61.65;100899.44;12241586;19;19946;-83
2023/12/26 19:02:33;;;;;;;;;;;12.80;57.80;;;11.36;61.79;100930.47;12254374;19;20012;-84
2023/12/26 19:06:36;;;;;;;;;;;12.80;57.60;;;11.23;61.63;100927.69;12257329;19;19918;-84
2023/12/26 19:10:37;;;;;;;;;;;12.70;57.90;;;11.06;61.54;100926.81;12251445;19;20349;-83
2023/12/26 19:14:39;;;;;;;;;;;12.60;57.90;;;11.00;61.62;100945.47;12256003;19;19917;-83
2023/12/26 19:18:40;;;;;;;;;;;12.40;57.90;;;10.84;61.66;100955.03;12247630;19;19930;-84
2023/12/26 19:22:41;;;;;;;;;;;12.30;58.10;;;10.76;61.71;100941.53;12252571;19;20604;-84
2023/12/26 19:26:44;;;;;;;;;;;12.20;58.10;;;10.39;61.52;100896.44;12252398;19;19951;-84
2023/12/26 19:30:49;;;;;;;;;;;12.10;58.30;;;10.43;61.54;100925.88;12250804;19;19923;-84
2023/12/26 19:34:51;;;;;;;;;;;12.00;58.30;;;10.21;61.79;100919.09;12253956;19;19926;-84
2023/12/26 19:38:53;;;;;;;;;;;11.80;58.30;;;10.39;61.72;100969.53;12251845;19;20259;-84
2023/12/26 19:42:56;;;;;;;;;;;11.70;58.30;;;10.37;61.55;100987.91;12250883;19;19994;-84
2023/12/26 19:46:58;;;;;;;;;;;11.70;58.40;;;10.11;61.83;100968.28;12255063;19;20236;-83
2023/12/26 19:50:59;;;;;;;;;;;11.60;58.40;;;10.23;61.80;100999.91;12251318;19;19915;-84
2023/12/26 19:55:01;;;;;;;;;;;11.50;58.40;;;10.23;61.79;101010.34;12251444;19;19914;-84
2023/12/26 19:59:03;;;;;;;;;;;11.50;58.60;;;10.20;61.74;101027.84;12245095;19;19930;-83
2023/12/26 20:03:05;;;;;;;;;;;11.40;58.60;;;10.11;61.61;101017.84;12251606;19;19938;-84
2023/12/26 20:07:06;;;;;;;;;;;11.40;58.60;;;10.03;61.62;101012.16;12251743;19;19918;-84
2023/12/26 20:11:08;;;;;;;;;;;11.40;58.80;;;9.92;61.60;101001.41;12247390;19;19919;-84
2023/12/26 20:15:09;;;;;;;;;;;11.40;58.80;;;10.08;61.71;101046.72;12251049;19;19922;-85
2023/12/26 20:19:12;;;;;;;;;;;11.30;58.80;;;9.84;61.78;101020.03;12247904;19;20288;-84
2023/12/26 20:23:14;;;;;;;;;;;11.30;58.80;;;10.03;61.71;101061.75;12248751;19;20357;-84
2023/12/26 20:27:16;;;;;;;;;;;11.30;58.90;;;10.02;61.71;101072.22;12248935;19;19939;-84
2023/12/26 20:31:18;;;;;;;;;;;11.30;58.80;;;10.03;61.68;101080.00;12245699;19;19927;-84
2023/12/26 20:35:19;;;;;;;;;;;11.30;58.80;;;10.09;61.85;101103.19;12244603;19;19948;-84
2023/12/26 20:39:21;;;;;;;;;;;11.30;58.80;;;10.09;61.68;101103.19;12244267;19;19921;-84
2023/12/26 20:43:22;;;;;;;;;;;11.30;58.80;;;9.82;61.58;101083.59;12246468;19;20332;-84
2023/12/26 20:47:24;;;;;;;;;;;11.30;58.40;;;10.05;61.88;101132.13;12247967;19;19941;-83
2023/12/26 20:51:25;;;;;;;;;;;11.40;58.70;;;10.03;61.87;101126.97;12245876;19;19915;-84
2023/12/26 20:55:28;;;;;;;;;;;11.30;58.40;;;9.81;61.71;101114.06;12249496;19;19932;-84
2023/12/26 20:59:29;;;;;;;;;;;11.30;58.60;;;9.94;61.73;101141.28;12244145;19;19926;-83
2023/12/26 21:03:31;;;;;;;;;;;11.30;58.50;;;9.89;61.73;101131.97;12245784;19;19926;-84
2023/12/26 21:07:33;;;;;;;;;;;11.30;58.30;;;9.91;61.71;101141.44;12249321;19;19910;-84
2023/12/26 21:11:37;;;;;;;;;;;11.30;58.50;;;9.85;61.81;101146.91;12247078;19;19978;-83